Terminal Aerodrome Forecast
Issued by NWS

Home | Current Version | Previous Version | Text Only | Print | Product List | Glossary On
Versions: 1 2 3 4 5 6 7 8 9 10 11 12 13 14 15
000
FTUS45 KRIW 012108 AAB
TAFBPI
TAF AMD
KBPI 012108Z 0121/0218 18009G18KT P6SM VCTS BKN070CB BKN100
      TEMPO 0121/0123 6SM -TSRA BKN060CB
     FM020200 30010KT P6SM SCT070
     FM020900 VRB05KT P6SM VCSH BKN070 OVC100
     FM021600 16009KT P6SM VCSH BKN050 OVC080=

USA.gov is the U.S. government's official web portal to all federal, state and local government web resources and services.